Portada
METAR-TAF:

METAR-TAF

Aeroports :

Harbin, Xina

latitud: 45-45N, longitud: 126-46E, altitud: 143 m

Observació

L'informe es va fer fa 58 minuts, a les 13:00 UTC
Vent 4 kt del Sud/Sud-Est
Temperatura 20°C
Humitat 28%
Pressió 1016 hPa
Visibilitat 10 km o més
sense núvols per sota de 1500 mi sense presència de cumulonimbus.

METAR: ZYHB 201300Z 15002MPS CAVOK 20/01 Q1016 NOSIG

Hora: 21:58 (13:58 UTC)

Pronòstic

L'informe es va fer fa 4 hores i 50 minuts, a les 09:08 UTC
Pronòstic vàlid del 20 a les 12 UTC al 21 a les 12 UTC
Vent 10 kt del Sud-Oest amb ràfegues de 23 kt
Visibilitat: 6000 m
Cel ennuvolat a una alçada de 3300 ft
Evolucionant progressivament
l' 20 a les 23 UTC al 20 a les 24 UTC
Vent 19 kt del Sud-Oest amb ràfegues de 35 kt

TAF: ZYHB 200908Z 2012/2112 23005G12MPS 6000 BKN033 TX28/2106Z TN15/2021Z BECMG 2023/2024 23010G18MPS

Observacions i pronòstics meteorològics de més de 4000 aeroports (METAR i TAF).

Les estacions disponibles són els punts grocs i vermells al mapa.

Posi el ratolí al punt desitjat per veure el nom de l'estació.

Feu clic per veure les observacions i els pronòstics meteorològics.

Per canviar el mapa: feu clic els botons verds amb una creu de color negre per apropar; al botó verd amb un guió per allunyar la imatge; o en les fletxes verdes per a mapes adjacents.


METAR-TAF: